sensor_id;sensor_type;location;lat;lon;timestamp;P1;durP1;ratioP1;P2;durP2;ratioP2
17024;SDS011;8629;42.496;25.620;2022-10-16T00:01:47;5.23;;;4.73;;
17024;SDS011;8629;42.496;25.620;2022-10-16T00:04:14;7.20;;;4.20;;
17024;SDS011;8629;42.496;25.620;2022-10-16T00:06:42;5.27;;;4.70;;
17024;SDS011;8629;42.496;25.620;2022-10-16T00:09:09;4.30;;;3.90;;
17024;SDS011;8629;42.496;25.620;2022-10-16T00:11:37;5.37;;;4.63;;
17024;SDS011;8629;42.496;25.620;2022-10-16T00:14:05;5.80;;;4.60;;
17024;SDS011;8629;42.496;25.620;2022-10-16T00:16:33;5.37;;;4.53;;
17024;SDS011;8629;42.496;25.620;2022-10-16T00:19:00;4.67;;;4.27;;
17024;SDS011;8629;42.496;25.620;2022-10-16T00:21:27;4.73;;;4.33;;
17024;SDS011;8629;42.496;25.620;2022-10-16T00:23:57;6.03;;;4.53;;
17024;SDS011;8629;42.496;25.620;2022-10-16T00:26:25;6.23;;;4.67;;
17024;SDS011;8629;42.496;25.620;2022-10-16T00:28:53;4.77;;;4.33;;
17024;SDS011;8629;42.496;25.620;2022-10-16T00:31:20;4.17;;;3.87;;
17024;SDS011;8629;42.496;25.620;2022-10-16T00:33:48;5.23;;;4.73;;
17024;SDS011;8629;42.496;25.620;2022-10-16T00:36:16;4.57;;;4.17;;
17024;SDS011;8629;42.496;25.620;2022-10-16T00:38:45;6.57;;;5.13;;
17024;SDS011;8629;42.496;25.620;2022-10-16T00:41:13;5.67;;;3.80;;
17024;SDS011;8629;42.496;25.620;2022-10-16T00:43:41;5.77;;;3.80;;
17024;SDS011;8629;42.496;25.620;2022-10-16T00:46:11;6.57;;;4.90;;
17024;SDS011;8629;42.496;25.620;2022-10-16T00:48:41;5.67;;;5.13;;
17024;SDS011;8629;42.496;25.620;2022-10-16T00:51:09;4.80;;;4.40;;
17024;SDS011;8629;42.496;25.620;2022-10-16T00:53:36;4.83;;;4.43;;
17024;SDS011;8629;42.496;25.620;2022-10-16T00:56:03;5.43;;;4.30;;
17024;SDS011;8629;42.496;25.620;2022-10-16T00:58:31;5.97;;;4.60;;
17024;SDS011;8629;42.496;25.620;2022-10-16T01:00:58;4.90;;;4.37;;
17024;SDS011;8629;42.496;25.620;2022-10-16T01:03:26;4.67;;;3.80;;
17024;SDS011;8629;42.496;25.620;2022-10-16T01:05:59;4.60;;;4.20;;
17024;SDS011;8629;42.496;25.620;2022-10-16T01:08:38;5.07;;;4.37;;
17024;SDS011;8629;42.496;25.620;2022-10-16T01:11:12;6.33;;;4.30;;
17024;SDS011;8629;42.496;25.620;2022-10-16T01:13:46;4.57;;;4.10;;
17024;SDS011;8629;42.496;25.620;2022-10-16T01:16:17;5.57;;;4.67;;
17024;SDS011;8629;42.496;25.620;2022-10-16T01:18:49;5.27;;;4.77;;
17024;SDS011;8629;42.496;25.620;2022-10-16T01:21:20;4.90;;;4.50;;
17024;SDS011;8629;42.496;25.620;2022-10-16T01:23:51;4.73;;;4.33;;
17024;SDS011;8629;42.496;25.620;2022-10-16T01:29:24;4.97;;;4.47;;
17024;SDS011;8629;42.496;25.620;2022-10-16T01:31:56;5.40;;;4.40;;
17024;SDS011;8629;42.496;25.620;2022-10-16T01:34:28;5.13;;;4.63;;
17024;SDS011;8629;42.496;25.620;2022-10-16T01:37:01;4.57;;;4.17;;
17024;SDS011;8629;42.496;25.620;2022-10-16T01:39:30;5.37;;;4.87;;
17024;SDS011;8629;42.496;25.620;2022-10-16T01:41:59;6.40;;;4.90;;
17024;SDS011;8629;42.496;25.620;2022-10-16T01:44:31;4.63;;;4.23;;
17024;SDS011;8629;42.496;25.620;2022-10-16T01:46:58;5.97;;;4.70;;
17024;SDS011;8629;42.496;25.620;2022-10-16T01:49:26;6.57;;;5.03;;
17024;SDS011;8629;42.496;25.620;2022-10-16T01:51:56;8.03;;;4.10;;
17024;SDS011;8629;42.496;25.620;2022-10-16T01:54:25;6.77;;;4.53;;
17024;SDS011;8629;42.496;25.620;2022-10-16T01:56:54;8.00;;;4.50;;
17024;SDS011;8629;42.496;25.620;2022-10-16T01:59:21;4.60;;;3.83;;
17024;SDS011;8629;42.496;25.620;2022-10-16T02:01:52;5.43;;;4.37;;
17024;SDS011;8629;42.496;25.620;2022-10-16T02:04:21;5.83;;;4.17;;
17024;SDS011;8629;42.496;25.620;2022-10-16T02:06:51;6.27;;;4.50;;
17024;SDS011;8629;42.496;25.620;2022-10-16T02:09:18;5.73;;;4.43;;
17024;SDS011;8629;42.496;25.620;2022-10-16T02:11:45;8.77;;;5.30;;
17024;SDS011;8629;42.496;25.620;2022-10-16T02:14:14;7.57;;;4.70;;
17024;SDS011;8629;42.496;25.620;2022-10-16T02:16:42;4.83;;;4.10;;
17024;SDS011;8629;42.496;25.620;2022-10-16T02:19:11;4.70;;;4.37;;
17024;SDS011;8629;42.496;25.620;2022-10-16T02:21:40;4.80;;;4.00;;
17024;SDS011;8629;42.496;25.620;2022-10-16T02:24:11;4.50;;;4.10;;
17024;SDS011;8629;42.496;25.620;2022-10-16T02:26:43;6.20;;;4.90;;
17024;SDS011;8629;42.496;25.620;2022-10-16T02:29:15;5.17;;;4.43;;
17024;SDS011;8629;42.496;25.620;2022-10-16T02:31:45;5.93;;;4.50;;
17024;SDS011;8629;42.496;25.620;2022-10-16T02:34:15;7.20;;;4.73;;
17024;SDS011;8629;42.496;25.620;2022-10-16T02:36:42;3.87;;;3.57;;
17024;SDS011;8629;42.496;25.620;2022-10-16T02:39:10;4.40;;;4.00;;
17024;SDS011;8629;42.496;25.620;2022-10-16T02:41:37;3.93;;;3.50;;
17024;SDS011;8629;42.496;25.620;2022-10-16T02:44:04;6.93;;;4.30;;
17024;SDS011;8629;42.496;25.620;2022-10-16T02:46:31;4.23;;;3.83;;
17024;SDS011;8629;42.496;25.620;2022-10-16T02:48:58;4.73;;;4.17;;
17024;SDS011;8629;42.496;25.620;2022-10-16T02:51:26;4.60;;;4.20;;
17024;SDS011;8629;42.496;25.620;2022-10-16T02:53:53;10.47;;;4.00;;
17024;SDS011;8629;42.496;25.620;2022-10-16T02:56:19;4.50;;;3.70;;
17024;SDS011;8629;42.496;25.620;2022-10-16T02:58:46;4.10;;;3.70;;
17024;SDS011;8629;42.496;25.620;2022-10-16T03:01:13;6.23;;;3.67;;
17024;SDS011;8629;42.496;25.620;2022-10-16T03:03:41;3.37;;;3.07;;
17024;SDS011;8629;42.496;25.620;2022-10-16T03:06:08;4.30;;;3.70;;
17024;SDS011;8629;42.496;25.620;2022-10-16T03:08:36;3.83;;;3.40;;
17024;SDS011;8629;42.496;25.620;2022-10-16T03:11:03;3.73;;;3.40;;
17024;SDS011;8629;42.496;25.620;2022-10-16T03:13:30;6.90;;;3.67;;
17024;SDS011;8629;42.496;25.620;2022-10-16T03:15:56;3.90;;;3.50;;
17024;SDS011;8629;42.496;25.620;2022-10-16T03:18:23;5.27;;;3.63;;
17024;SDS011;8629;42.496;25.620;2022-10-16T03:20:50;4.20;;;3.80;;
17024;SDS011;8629;42.496;25.620;2022-10-16T03:23:17;5.87;;;5.07;;
17024;SDS011;8629;42.496;25.620;2022-10-16T03:25:45;4.53;;;4.13;;
17024;SDS011;8629;42.496;25.620;2022-10-16T03:28:12;6.20;;;3.97;;
17024;SDS011;8629;42.496;25.620;2022-10-16T03:30:38;12.73;;;10.33;;
17024;SDS011;8629;42.496;25.620;2022-10-16T03:33:05;13.07;;;11.23;;
17024;SDS011;8629;42.496;25.620;2022-10-16T03:35:32;10.07;;;7.67;;
17024;SDS011;8629;42.496;25.620;2022-10-16T03:37:59;6.97;;;6.30;;
17024;SDS011;8629;42.496;25.620;2022-10-16T03:40:26;10.53;;;6.83;;
17024;SDS011;8629;42.496;25.620;2022-10-16T03:42:54;9.67;;;8.77;;
17024;SDS011;8629;42.496;25.620;2022-10-16T03:45:22;12.13;;;10.20;;
17024;SDS011;8629;42.496;25.620;2022-10-16T03:47:49;15.27;;;11.10;;
17024;SDS011;8629;42.496;25.620;2022-10-16T03:50:16;17.43;;;12.47;;
17024;SDS011;8629;42.496;25.620;2022-10-16T03:52:43;14.73;;;10.93;;
17024;SDS011;8629;42.496;25.620;2022-10-16T03:55:09;8.33;;;7.47;;
17024;SDS011;8629;42.496;25.620;2022-10-16T03:57:36;11.40;;;7.33;;
17024;SDS011;8629;42.496;25.620;2022-10-16T04:00:05;11.30;;;6.80;;
17024;SDS011;8629;42.496;25.620;2022-10-16T04:02:32;9.10;;;5.60;;
17024;SDS011;8629;42.496;25.620;2022-10-16T04:04:59;10.53;;;5.63;;
17024;SDS011;8629;42.496;25.620;2022-10-16T04:07:26;5.17;;;4.47;;
17024;SDS011;8629;42.496;25.620;2022-10-16T04:09:53;5.57;;;4.97;;
17024;SDS011;8629;42.496;25.620;2022-10-16T04:12:22;6.97;;;5.40;;
17024;SDS011;8629;42.496;25.620;2022-10-16T04:14:49;6.90;;;4.47;;
17024;SDS011;8629;42.496;25.620;2022-10-16T04:17:17;5.00;;;4.43;;
17024;SDS011;8629;42.496;25.620;2022-10-16T04:19:43;6.00;;;5.00;;
17024;SDS011;8629;42.496;25.620;2022-10-16T04:22:10;4.87;;;4.37;;
17024;SDS011;8629;42.496;25.620;2022-10-16T04:24:37;6.33;;;4.90;;
17024;SDS011;8629;42.496;25.620;2022-10-16T04:27:04;6.43;;;4.87;;
17024;SDS011;8629;42.496;25.620;2022-10-16T04:29:30;13.20;;;6.60;;
17024;SDS011;8629;42.496;25.620;2022-10-16T04:31:57;27.53;;;15.10;;
17024;SDS011;8629;42.496;25.620;2022-10-16T04:34:25;17.47;;;11.33;;
17024;SDS011;8629;42.496;25.620;2022-10-16T04:36:52;7.57;;;6.77;;
17024;SDS011;8629;42.496;25.620;2022-10-16T04:39:19;7.70;;;5.47;;
17024;SDS011;8629;42.496;25.620;2022-10-16T04:41:46;6.53;;;5.20;;
17024;SDS011;8629;42.496;25.620;2022-10-16T04:44:12;7.23;;;5.33;;
17024;SDS011;8629;42.496;25.620;2022-10-16T04:46:39;7.07;;;5.57;;
17024;SDS011;8629;42.496;25.620;2022-10-16T04:49:06;19.23;;;11.33;;
17024;SDS011;8629;42.496;25.620;2022-10-16T04:51:34;15.77;;;11.13;;
17024;SDS011;8629;42.496;25.620;2022-10-16T04:54:01;8.37;;;7.20;;
17024;SDS011;8629;42.496;25.620;2022-10-16T04:56:28;8.07;;;6.60;;
17024;SDS011;8629;42.496;25.620;2022-10-16T04:58:54;7.87;;;6.37;;
17024;SDS011;8629;42.496;25.620;2022-10-16T05:01:21;15.50;;;10.07;;
17024;SDS011;8629;42.496;25.620;2022-10-16T05:03:48;7.63;;;5.27;;
17024;SDS011;8629;42.496;25.620;2022-10-16T05:06:15;6.47;;;4.93;;
17024;SDS011;8629;42.496;25.620;2022-10-16T05:08:43;7.13;;;5.80;;
17024;SDS011;8629;42.496;25.620;2022-10-16T05:11:10;10.40;;;7.47;;
17024;SDS011;8629;42.496;25.620;2022-10-16T05:13:36;11.73;;;8.10;;
17024;SDS011;8629;42.496;25.620;2022-10-16T05:16:03;7.67;;;6.30;;
17024;SDS011;8629;42.496;25.620;2022-10-16T05:18:31;16.13;;;10.47;;
17024;SDS011;8629;42.496;25.620;2022-10-16T05:20:57;8.77;;;6.33;;
17024;SDS011;8629;42.496;25.620;2022-10-16T05:23:24;4.73;;;4.33;;
17024;SDS011;8629;42.496;25.620;2022-10-16T05:25:56;8.57;;;5.33;;
17024;SDS011;8629;42.496;25.620;2022-10-16T05:28:23;5.67;;;5.17;;
17024;SDS011;8629;42.496;25.620;2022-10-16T05:30:50;12.40;;;7.77;;
17024;SDS011;8629;42.496;25.620;2022-10-16T05:33:19;5.77;;;4.67;;
17024;SDS011;8629;42.496;25.620;2022-10-16T05:35:46;5.43;;;4.30;;
17024;SDS011;8629;42.496;25.620;2022-10-16T05:38:13;6.20;;;5.60;;
17024;SDS011;8629;42.496;25.620;2022-10-16T05:40:39;10.13;;;5.50;;
17024;SDS011;8629;42.496;25.620;2022-10-16T05:43:07;7.13;;;5.23;;
17024;SDS011;8629;42.496;25.620;2022-10-16T05:45:34;8.20;;;6.27;;
17024;SDS011;8629;42.496;25.620;2022-10-16T05:48:01;6.40;;;5.80;;
17024;SDS011;8629;42.496;25.620;2022-10-16T05:50:28;5.67;;;4.97;;
17024;SDS011;8629;42.496;25.620;2022-10-16T05:52:54;4.90;;;4.40;;
17024;SDS011;8629;42.496;25.620;2022-10-16T05:55:21;4.90;;;4.50;;
17024;SDS011;8629;42.496;25.620;2022-10-16T05:57:48;8.57;;;5.10;;
17024;SDS011;8629;42.496;25.620;2022-10-16T06:00:17;23.57;;;5.30;;
17024;SDS011;8629;42.496;25.620;2022-10-16T06:02:44;5.77;;;4.97;;
17024;SDS011;8629;42.496;25.620;2022-10-16T06:05:11;5.47;;;4.40;;
17024;SDS011;8629;42.496;25.620;2022-10-16T06:07:38;4.77;;;4.03;;
17024;SDS011;8629;42.496;25.620;2022-10-16T06:10:06;6.67;;;3.73;;
17024;SDS011;8629;42.496;25.620;2022-10-16T06:12:34;3.77;;;3.47;;
17024;SDS011;8629;42.496;25.620;2022-10-16T06:15:00;3.97;;;3.67;;
17024;SDS011;8629;42.496;25.620;2022-10-16T06:17:28;4.30;;;3.90;;
17024;SDS011;8629;42.496;25.620;2022-10-16T06:19:55;4.17;;;3.77;;
17024;SDS011;8629;42.496;25.620;2022-10-16T06:22:22;4.13;;;3.77;;
17024;SDS011;8629;42.496;25.620;2022-10-16T06:24:49;3.90;;;3.50;;
17024;SDS011;8629;42.496;25.620;2022-10-16T06:27:15;6.73;;;4.03;;
17024;SDS011;8629;42.496;25.620;2022-10-16T06:29:42;4.77;;;3.80;;
17024;SDS011;8629;42.496;25.620;2022-10-16T06:32:10;4.47;;;4.17;;
17024;SDS011;8629;42.496;25.620;2022-10-16T06:34:38;3.97;;;3.53;;
17024;SDS011;8629;42.496;25.620;2022-10-16T06:37:06;4.43;;;4.00;;
17024;SDS011;8629;42.496;25.620;2022-10-16T06:39:32;4.07;;;3.57;;
17024;SDS011;8629;42.496;25.620;2022-10-16T06:41:59;4.47;;;3.53;;
17024;SDS011;8629;42.496;25.620;2022-10-16T06:44:26;5.13;;;3.73;;
17024;SDS011;8629;42.496;25.620;2022-10-16T06:46:53;6.17;;;4.10;;
17024;SDS011;8629;42.496;25.620;2022-10-16T06:49:19;4.70;;;3.50;;
17024;SDS011;8629;42.496;25.620;2022-10-16T06:51:49;5.33;;;3.70;;
17024;SDS011;8629;42.496;25.620;2022-10-16T06:54:19;6.17;;;4.20;;
17024;SDS011;8629;42.496;25.620;2022-10-16T06:56:45;5.37;;;3.97;;
17024;SDS011;8629;42.496;25.620;2022-10-16T06:59:12;6.03;;;4.23;;
17024;SDS011;8629;42.496;25.620;2022-10-16T07:01:39;5.57;;;4.30;;
17024;SDS011;8629;42.496;25.620;2022-10-16T07:04:06;4.70;;;3.97;;
17024;SDS011;8629;42.496;25.620;2022-10-16T07:06:33;4.97;;;3.90;;
17024;SDS011;8629;42.496;25.620;2022-10-16T07:09:03;5.87;;;4.23;;
17024;SDS011;8629;42.496;25.620;2022-10-16T07:11:31;5.30;;;4.67;;
17024;SDS011;8629;42.496;25.620;2022-10-16T07:14:00;6.67;;;4.43;;
17024;SDS011;8629;42.496;25.620;2022-10-16T07:16:28;6.10;;;5.20;;
17024;SDS011;8629;42.496;25.620;2022-10-16T07:18:56;6.93;;;5.40;;
17024;SDS011;8629;42.496;25.620;2022-10-16T07:21:24;5.23;;;4.60;;
17024;SDS011;8629;42.496;25.620;2022-10-16T07:23:54;6.13;;;5.33;;
17024;SDS011;8629;42.496;25.620;2022-10-16T07:26:23;8.47;;;4.87;;
17024;SDS011;8629;42.496;25.620;2022-10-16T07:28:50;6.50;;;5.87;;
17024;SDS011;8629;42.496;25.620;2022-10-16T07:31:18;8.17;;;6.20;;
17024;SDS011;8629;42.496;25.620;2022-10-16T07:33:46;8.47;;;6.63;;
17024;SDS011;8629;42.496;25.620;2022-10-16T07:36:13;8.50;;;6.20;;
17024;SDS011;8629;42.496;25.620;2022-10-16T07:38:40;8.47;;;5.90;;
17024;SDS011;8629;42.496;25.620;2022-10-16T07:41:09;7.77;;;6.13;;
17024;SDS011;8629;42.496;25.620;2022-10-16T07:43:38;8.23;;;6.60;;
17024;SDS011;8629;42.496;25.620;2022-10-16T07:46:05;7.20;;;6.50;;
17024;SDS011;8629;42.496;25.620;2022-10-16T07:48:32;10.90;;;6.57;;
17024;SDS011;8629;42.496;25.620;2022-10-16T07:51:00;8.37;;;6.93;;
17024;SDS011;8629;42.496;25.620;2022-10-16T07:53:27;12.10;;;6.60;;
17024;SDS011;8629;42.496;25.620;2022-10-16T07:55:56;8.43;;;6.97;;
17024;SDS011;8629;42.496;25.620;2022-10-16T07:58:24;8.23;;;7.43;;
17024;SDS011;8629;42.496;25.620;2022-10-16T08:00:52;8.73;;;7.63;;
17024;SDS011;8629;42.496;25.620;2022-10-16T08:03:18;9.23;;;6.83;;
17024;SDS011;8629;42.496;25.620;2022-10-16T08:05:45;8.53;;;7.57;;
17024;SDS011;8629;42.496;25.620;2022-10-16T08:08:12;10.00;;;7.40;;
17024;SDS011;8629;42.496;25.620;2022-10-16T08:10:40;11.57;;;7.03;;
17024;SDS011;8629;42.496;25.620;2022-10-16T08:13:06;7.90;;;7.10;;
17024;SDS011;8629;42.496;25.620;2022-10-16T08:15:33;7.70;;;6.80;;
17024;SDS011;8629;42.496;25.620;2022-10-16T08:18:03;8.00;;;6.63;;
17024;SDS011;8629;42.496;25.620;2022-10-16T08:20:32;6.50;;;5.90;;
17024;SDS011;8629;42.496;25.620;2022-10-16T08:22:59;6.80;;;5.90;;
17024;SDS011;8629;42.496;25.620;2022-10-16T08:25:26;11.13;;;7.03;;
17024;SDS011;8629;42.496;25.620;2022-10-16T08:27:53;7.13;;;6.07;;
17024;SDS011;8629;42.496;25.620;2022-10-16T08:30:21;7.27;;;6.17;;
17024;SDS011;8629;42.496;25.620;2022-10-16T08:32:48;5.87;;;5.30;;
17024;SDS011;8629;42.496;25.620;2022-10-16T08:35:17;7.37;;;5.60;;
17024;SDS011;8629;42.496;25.620;2022-10-16T08:37:43;6.07;;;5.37;;
17024;SDS011;8629;42.496;25.620;2022-10-16T08:40:13;8.27;;;6.60;;
17024;SDS011;8629;42.496;25.620;2022-10-16T08:42:47;7.80;;;5.10;;
17024;SDS011;8629;42.496;25.620;2022-10-16T08:45:23;7.57;;;5.73;;
17024;SDS011;8629;42.496;25.620;2022-10-16T08:47:59;6.00;;;5.40;;
17024;SDS011;8629;42.496;25.620;2022-10-16T08:50:32;6.67;;;5.37;;
17024;SDS011;8629;42.496;25.620;2022-10-16T08:53:01;6.93;;;5.40;;
17024;SDS011;8629;42.496;25.620;2022-10-16T08:55:31;6.43;;;5.53;;
17024;SDS011;8629;42.496;25.620;2022-10-16T08:58:01;4.43;;;4.00;;
17024;SDS011;8629;42.496;25.620;2022-10-16T09:00:28;5.83;;;4.70;;
17024;SDS011;8629;42.496;25.620;2022-10-16T09:02:57;5.03;;;4.23;;
17024;SDS011;8629;42.496;25.620;2022-10-16T09:05:38;6.10;;;4.10;;
17024;SDS011;8629;42.496;25.620;2022-10-16T09:08:13;6.30;;;4.33;;
17024;SDS011;8629;42.496;25.620;2022-10-16T09:10:46;4.27;;;3.93;;
17024;SDS011;8629;42.496;25.620;2022-10-16T09:13:22;5.63;;;4.50;;
17024;SDS011;8629;42.496;25.620;2022-10-16T09:15:53;6.63;;;4.43;;
17024;SDS011;8629;42.496;25.620;2022-10-16T09:18:24;5.93;;;4.57;;
17024;SDS011;8629;42.496;25.620;2022-10-16T09:20:56;5.93;;;5.37;;
17024;SDS011;8629;42.496;25.620;2022-10-16T09:23:26;5.50;;;4.00;;
17024;SDS011;8629;42.496;25.620;2022-10-16T09:25:54;4.57;;;3.70;;
17024;SDS011;8629;42.496;25.620;2022-10-16T09:28:21;4.47;;;4.07;;
17024;SDS011;8629;42.496;25.620;2022-10-16T09:30:48;4.47;;;3.73;;
17024;SDS011;8629;42.496;25.620;2022-10-16T09:33:15;3.73;;;3.23;;
17024;SDS011;8629;42.496;25.620;2022-10-16T09:35:44;4.27;;;3.97;;
17024;SDS011;8629;42.496;25.620;2022-10-16T09:38:22;5.17;;;3.63;;
17024;SDS011;8629;42.496;25.620;2022-10-16T09:40:51;3.67;;;3.37;;
17024;SDS011;8629;42.496;25.620;2022-10-16T09:43:21;3.47;;;3.17;;
17024;SDS011;8629;42.496;25.620;2022-10-16T09:45:54;3.43;;;3.13;;
17024;SDS011;8629;42.496;25.620;2022-10-16T09:48:22;3.73;;;3.00;;
17024;SDS011;8629;42.496;25.620;2022-10-16T09:50:55;3.97;;;3.53;;
17024;SDS011;8629;42.496;25.620;2022-10-16T09:53:24;3.10;;;2.70;;
17024;SDS011;8629;42.496;25.620;2022-10-16T09:55:53;3.00;;;2.63;;
17024;SDS011;8629;42.496;25.620;2022-10-16T09:58:21;13.60;;;4.03;;
17024;SDS011;8629;42.496;25.620;2022-10-16T10:00:48;2.97;;;2.77;;
17024;SDS011;8629;42.496;25.620;2022-10-16T10:03:19;4.27;;;3.10;;
17024;SDS011;8629;42.496;25.620;2022-10-16T10:06:05;2.57;;;2.37;;
17024;SDS011;8629;42.496;25.620;2022-10-16T10:08:51;3.23;;;2.60;;
17024;SDS011;8629;42.496;25.620;2022-10-16T10:14:05;3.90;;;2.37;;
17024;SDS011;8629;42.496;25.620;2022-10-16T10:16:32;3.63;;;2.57;;
17024;SDS011;8629;42.496;25.620;2022-10-16T10:19:01;2.67;;;2.10;;
17024;SDS011;8629;42.496;25.620;2022-10-16T10:21:27;4.27;;;2.30;;
17024;SDS011;8629;42.496;25.620;2022-10-16T10:23:58;2.83;;;2.40;;
17024;SDS011;8629;42.496;25.620;2022-10-16T10:26:26;3.00;;;2.10;;
17024;SDS011;8629;42.496;25.620;2022-10-16T10:28:55;2.50;;;2.30;;
17024;SDS011;8629;42.496;25.620;2022-10-16T10:31:30;2.30;;;2.10;;
17024;SDS011;8629;42.496;25.620;2022-10-16T10:34:01;2.50;;;2.30;;
17024;SDS011;8629;42.496;25.620;2022-10-16T10:36:36;3.83;;;2.10;;
17024;SDS011;8629;42.496;25.620;2022-10-16T10:39:06;4.37;;;2.60;;
17024;SDS011;8629;42.496;25.620;2022-10-16T10:41:51;3.50;;;2.63;;
17024;SDS011;8629;42.496;25.620;2022-10-16T10:44:50;3.37;;;2.10;;
17024;SDS011;8629;42.496;25.620;2022-10-16T10:47:26;3.77;;;2.83;;
17024;SDS011;8629;42.496;25.620;2022-10-16T10:50:02;2.77;;;2.47;;
17024;SDS011;8629;42.496;25.620;2022-10-16T10:52:35;2.10;;;1.90;;
17024;SDS011;8629;42.496;25.620;2022-10-16T10:55:15;2.80;;;2.20;;
17024;SDS011;8629;42.496;25.620;2022-10-16T10:57:50;3.50;;;2.00;;
17024;SDS011;8629;42.496;25.620;2022-10-16T11:00:25;5.13;;;3.17;;
17024;SDS011;8629;42.496;25.620;2022-10-16T11:03:08;1.90;;;1.80;;
17024;SDS011;8629;42.496;25.620;2022-10-16T11:05:46;2.30;;;2.10;;
17024;SDS011;8629;42.496;25.620;2022-10-16T11:08:17;2.87;;;2.17;;
17024;SDS011;8629;42.496;25.620;2022-10-16T11:10:50;3.60;;;2.40;;
17024;SDS011;8629;42.496;25.620;2022-10-16T11:13:24;3.70;;;2.07;;
17024;SDS011;8629;42.496;25.620;2022-10-16T11:15:57;1.87;;;1.77;;
17024;SDS011;8629;42.496;25.620;2022-10-16T11:18:27;3.63;;;2.53;;
17024;SDS011;8629;42.496;25.620;2022-10-16T11:21:00;2.17;;;1.63;;
17024;SDS011;8629;42.496;25.620;2022-10-16T11:23:31;2.63;;;2.00;;
17024;SDS011;8629;42.496;25.620;2022-10-16T11:26:04;2.17;;;1.80;;
17024;SDS011;8629;42.496;25.620;2022-10-16T11:28:32;2.23;;;1.93;;
17024;SDS011;8629;42.496;25.620;2022-10-16T11:31:02;2.20;;;2.00;;
17024;SDS011;8629;42.496;25.620;2022-10-16T11:33:36;2.80;;;2.20;;
17024;SDS011;8629;42.496;25.620;2022-10-16T11:36:08;2.07;;;1.83;;
17024;SDS011;8629;42.496;25.620;2022-10-16T11:38:39;2.50;;;2.30;;
17024;SDS011;8629;42.496;25.620;2022-10-16T11:41:13;4.07;;;2.10;;
17024;SDS011;8629;42.496;25.620;2022-10-16T11:43:49;2.27;;;1.80;;
17024;SDS011;8629;42.496;25.620;2022-10-16T11:46:22;2.83;;;1.90;;
17024;SDS011;8629;42.496;25.620;2022-10-16T11:48:51;3.03;;;1.73;;
17024;SDS011;8629;42.496;25.620;2022-10-16T11:51:22;3.53;;;1.83;;
17024;SDS011;8629;42.496;25.620;2022-10-16T11:53:53;2.20;;;2.00;;
17024;SDS011;8629;42.496;25.620;2022-10-16T11:56:24;3.00;;;1.90;;
17024;SDS011;8629;42.496;25.620;2022-10-16T11:58:53;3.33;;;2.40;;
17024;SDS011;8629;42.496;25.620;2022-10-16T12:01:26;2.37;;;2.17;;
17024;SDS011;8629;42.496;25.620;2022-10-16T12:03:59;2.13;;;1.80;;
17024;SDS011;8629;42.496;25.620;2022-10-16T12:06:31;2.60;;;2.10;;
17024;SDS011;8629;42.496;25.620;2022-10-16T12:09:00;3.17;;;2.63;;
17024;SDS011;8629;42.496;25.620;2022-10-16T12:11:33;3.60;;;2.43;;
17024;SDS011;8629;42.496;25.620;2022-10-16T12:14:06;3.97;;;2.33;;
17024;SDS011;8629;42.496;25.620;2022-10-16T12:16:58;2.63;;;2.13;;
17024;SDS011;8629;42.496;25.620;2022-10-16T12:19:26;1.80;;;1.70;;
17024;SDS011;8629;42.496;25.620;2022-10-16T12:21:55;2.90;;;2.10;;
17024;SDS011;8629;42.496;25.620;2022-10-16T12:24:28;2.80;;;1.77;;
17024;SDS011;8629;42.496;25.620;2022-10-16T12:26:59;3.53;;;2.07;;
17024;SDS011;8629;42.496;25.620;2022-10-16T12:29:32;2.37;;;2.17;;
17024;SDS011;8629;42.496;25.620;2022-10-16T12:32:00;1.90;;;1.80;;
17024;SDS011;8629;42.496;25.620;2022-10-16T12:34:29;3.73;;;1.83;;
17024;SDS011;8629;42.496;25.620;2022-10-16T12:37:07;1.93;;;1.80;;
17024;SDS011;8629;42.496;25.620;2022-10-16T12:39:38;2.57;;;2.33;;
17024;SDS011;8629;42.496;25.620;2022-10-16T12:42:22;1.80;;;1.60;;
17024;SDS011;8629;42.496;25.620;2022-10-16T12:44:56;2.37;;;2.17;;
17024;SDS011;8629;42.496;25.620;2022-10-16T12:47:24;2.10;;;1.73;;
17024;SDS011;8629;42.496;25.620;2022-10-16T12:50:03;4.40;;;2.10;;
17024;SDS011;8629;42.496;25.620;2022-10-16T12:52:50;2.30;;;2.00;;
17024;SDS011;8629;42.496;25.620;2022-10-16T12:55:18;2.60;;;2.40;;
17024;SDS011;8629;42.496;25.620;2022-10-16T12:57:50;4.37;;;2.10;;
17024;SDS011;8629;42.496;25.620;2022-10-16T13:00:30;4.17;;;2.43;;
17024;SDS011;8629;42.496;25.620;2022-10-16T13:05:53;2.30;;;2.10;;
17024;SDS011;8629;42.496;25.620;2022-10-16T13:08:40;2.53;;;2.33;;
17024;SDS011;8629;42.496;25.620;2022-10-16T13:11:15;3.03;;;2.10;;
17024;SDS011;8629;42.496;25.620;2022-10-16T13:14:01;2.40;;;2.20;;
17024;SDS011;8629;42.496;25.620;2022-10-16T13:16:46;2.20;;;2.07;;
17024;SDS011;8629;42.496;25.620;2022-10-16T13:19:18;3.03;;;2.33;;
17024;SDS011;8629;42.496;25.620;2022-10-16T13:21:53;3.13;;;2.27;;
17024;SDS011;8629;42.496;25.620;2022-10-16T13:24:27;2.30;;;2.07;;
17024;SDS011;8629;42.496;25.620;2022-10-16T13:27:07;3.00;;;2.17;;
17024;SDS011;8629;42.496;25.620;2022-10-16T13:29:39;2.07;;;1.80;;
17024;SDS011;8629;42.496;25.620;2022-10-16T13:32:09;2.50;;;2.30;;
17024;SDS011;8629;42.496;25.620;2022-10-16T13:34:43;3.23;;;2.33;;
17024;SDS011;8629;42.496;25.620;2022-10-16T13:37:16;4.60;;;2.27;;
17024;SDS011;8629;42.496;25.620;2022-10-16T13:39:43;2.10;;;1.87;;
17024;SDS011;8629;42.496;25.620;2022-10-16T13:42:10;2.33;;;2.13;;
17024;SDS011;8629;42.496;25.620;2022-10-16T13:44:41;2.63;;;1.87;;
17024;SDS011;8629;42.496;25.620;2022-10-16T13:47:16;2.33;;;2.13;;
17024;SDS011;8629;42.496;25.620;2022-10-16T13:49:44;3.57;;;2.20;;
17024;SDS011;8629;42.496;25.620;2022-10-16T13:52:17;2.93;;;2.20;;
17024;SDS011;8629;42.496;25.620;2022-10-16T13:54:45;2.43;;;2.13;;
17024;SDS011;8629;42.496;25.620;2022-10-16T13:57:12;3.67;;;2.20;;
17024;SDS011;8629;42.496;25.620;2022-10-16T13:59:41;3.47;;;2.40;;
17024;SDS011;8629;42.496;25.620;2022-10-16T14:02:13;2.37;;;2.17;;
17024;SDS011;8629;42.496;25.620;2022-10-16T14:04:44;2.57;;;2.37;;
17024;SDS011;8629;42.496;25.620;2022-10-16T14:07:13;3.30;;;2.40;;
17024;SDS011;8629;42.496;25.620;2022-10-16T14:09:42;2.07;;;1.93;;
17024;SDS011;8629;42.496;25.620;2022-10-16T14:12:10;3.20;;;2.43;;
17024;SDS011;8629;42.496;25.620;2022-10-16T14:14:40;2.57;;;2.37;;
17024;SDS011;8629;42.496;25.620;2022-10-16T14:17:13;5.43;;;1.80;;
17024;SDS011;8629;42.496;25.620;2022-10-16T14:19:40;6.50;;;2.90;;
17024;SDS011;8629;42.496;25.620;2022-10-16T14:22:16;2.20;;;2.00;;
17024;SDS011;8629;42.496;25.620;2022-10-16T14:24:49;3.23;;;2.17;;
17024;SDS011;8629;42.496;25.620;2022-10-16T14:27:24;17.27;;;5.30;;
17024;SDS011;8629;42.496;25.620;2022-10-16T14:30:13;24.57;;;5.73;;
17024;SDS011;8629;42.496;25.620;2022-10-16T14:32:52;2.30;;;2.10;;
17024;SDS011;8629;42.496;25.620;2022-10-16T14:35:27;9.93;;;2.43;;
17024;SDS011;8629;42.496;25.620;2022-10-16T14:37:56;9.40;;;2.80;;
17024;SDS011;8629;42.496;25.620;2022-10-16T14:40:24;2.60;;;2.03;;
17024;SDS011;8629;42.496;25.620;2022-10-16T14:42:53;2.37;;;2.07;;
17024;SDS011;8629;42.496;25.620;2022-10-16T14:45:23;5.10;;;3.00;;
17024;SDS011;8629;42.496;25.620;2022-10-16T14:47:51;4.60;;;2.40;;
17024;SDS011;8629;42.496;25.620;2022-10-16T14:50:20;2.30;;;2.10;;
17024;SDS011;8629;42.496;25.620;2022-10-16T14:52:47;2.30;;;2.10;;
17024;SDS011;8629;42.496;25.620;2022-10-16T14:55:14;3.10;;;2.90;;
17024;SDS011;8629;42.496;25.620;2022-10-16T14:57:42;3.80;;;2.00;;
17024;SDS011;8629;42.496;25.620;2022-10-16T15:00:10;3.03;;;2.40;;
17024;SDS011;8629;42.496;25.620;2022-10-16T15:02:43;2.83;;;2.23;;
17024;SDS011;8629;42.496;25.620;2022-10-16T15:05:12;2.93;;;2.73;;
17024;SDS011;8629;42.496;25.620;2022-10-16T15:07:41;4.00;;;2.73;;
17024;SDS011;8629;42.496;25.620;2022-10-16T15:10:08;2.57;;;2.37;;